CST,Max TemperatureF,Mean TemperatureF,Min TemperatureF,Max Dew PointF,MeanDew PointF,Min DewpointF,Max Humidity, Mean Humidity, Min Humidity, Max Sea Level PressureIn, Mean Sea Level PressureIn, Min Sea Level PressureIn, Max VisibilityMiles, Mean VisibilityMiles, Min VisibilityMiles, Max Wind SpeedMPH, Mean Wind SpeedMPH, Max Gust SpeedMPH,PrecipitationIn, CloudCover, Events, WindDirDegrees
2012-11-1,68,54,39,46,36,28,81,60,40,29.98,29.94,29.86,10,10,10,15,6,21,0.00,2,,279
2012-11-2,53,43,33,36,34,30,87,68,44,30.11,30.06,29.98,10,10,5,10,6,,0.00,0,,67
2012-11-3,53,46,39,41,37,34,87,70,51,30.22,30.15,30.06,10,10,4,14,8,17,0.00,5,,66
2012-11-4,51,42,33,45,39,34,100,88,62,30.26,30.21,30.16,10,7,0,7,2,,0.02,5,Fog-Rain,148
2012-11-5,46,44,42,45,42,39,100,92,81,30.16,30.13,30.09,10,8,3,13,7,18,0.15,8,Rain,99
2012-11-6,50,46,42,48,44,39,100,95,81,30.11,29.96,29.88,10,7,1,12,5,,0.07,8,Rain,236
2012-11-7,48,44,41,45,42,39,100,88,76,30.18,30.09,29.93,10,10,4,14,7,20,0.00,7,,349
2012-11-8,57,47,37,45,41,37,100,81,59,30.18,30.10,30.00,10,9,5,15,7,21,0.00,0,,165
2012-11-9,66,56,46,57,50,43,93,77,60,30.01,29.93,29.87,10,10,10,12,7,10,0.00,1,,156
2012-11-10,75,67,59,59,56,48,88,69,46,29.89,29.83,29.77,10,10,10,22,12,29,0.00,0,Rain,173
2012-11-11,68,50,33,61,48,27,100,87,68,30.11,29.86,29.70,10,8,2,20,15,31,1.00,6,Rain-Snow,245
2012-11-12,42,34,26,28,25,23,93,71,53,30.41,30.25,30.11,10,10,10,22,9,30,0.00,1,,261
2012-11-13,48,37,26,32,28,25,93,68,46,30.51,30.45,30.41,10,10,10,12,5,16,0.00,0,,182
2012-11-14,57,46,35,37,31,27,75,61,38,30.45,30.39,30.34,10,10,10,13,9,16,0.03,0,,169
2012-11-15,53,43,33,32,29,27,81,61,35,30.37,30.33,30.29,10,10,10,10,7,,0.00,0,,187
2012-11-16,55,42,28,37,33,28,100,72,47,30.46,30.42,30.37,10,8,2,8,2,,0.00,0,,288
2012-11-17,55,45,35,34,31,27,81,62,38,30.48,30.42,30.37,10,7,1,12,7,16,0.00,0,,155
2012-11-18,60,48,37,34,31,27,81,55,27,30.38,30.31,30.25,10,10,7,14,10,20,0.00,0,,161
2012-11-19,51,48,44,48,42,34,100,82,62,30.25,30.15,30.07,10,10,4,14,9,17,0.05,4,Rain,174
2012-11-20,46,40,35,46,43,36,100,100,100,30.22,30.15,30.05,10,1,0,9,4,,0.00,7,Fog,314
2012-11-21,57,46,35,52,42,36,100,90,67,30.24,30.16,30.06,10,5,0,14,5,17,0.01,4,Fog,182
2012-11-22,62,50,39,50,41,34,87,68,45,30.11,29.94,29.79,10,10,10,24,13,37,0.00,2,Rain,208
2012-11-23,39,30,21,34,18,14,81,60,48,30.35,30.26,30.10,10,10,10,29,17,39,0.00,1,,298
2012-11-24,30,24,17,19,16,12,86,70,60,30.34,30.19,29.92,10,10,10,13,7,16,0.00,1,,227
2012-11-25,42,35,28,28,24,19,80,62,46,30.10,29.96,29.86,10,10,10,12,8,,0.00,1,,313
2012-11-26,32,24,17,25,18,10,80,67,51,30.43,30.29,30.11,10,10,10,15,7,,0.00,3,,349
2012-11-27,33,22,12,16,12,9,86,62,41,30.45,30.36,30.27,10,10,10,9,5,,0.00,1,,224
2012-11-28,44,32,21,27,21,16,80,62,43,30.42,30.33,30.24,10,10,10,8,5,,0.00,0,,209
2012-11-29,51,40,30,36,31,25,87,68,47,30.24,30.10,30.02,10,10,7,12,7,17,0.00,0,,173
2012-11-30,55,46,35,37,35,32,100,71,51,30.09,30.05,30.00,10,9,2,10,6,,0.00,0,,195